Аэропорт: Стригино. Нижний Новгород

ICAO: UWGG

METAR:
2019/01/21 23:00
UWGG 212300Z 27003MPS 9999 -SN BKN011 M14/M16 Q1008 R36R/420145 NOSIG
METAR:
2019/01/21 21:21
TAF UWGG 211950Z 2121/2221 27003MPS 9999 BKN016 TXM10/2212Z TNM16/2203Z 
      TEMPO 2206/2218 4000 -SHSN BKN011CB